sensor_id;sensor_type;location;lat;lon;timestamp;P1;durP1;ratioP1;P2;durP2;ratioP2
78787;SDS011;68131;52.508;5.502;2023-06-22T00:00:20;4.43;;;3.50;;
78787;SDS011;68131;52.508;5.502;2023-06-22T00:02:49;5.10;;;3.40;;
78787;SDS011;68131;52.508;5.502;2023-06-22T00:05:19;4.35;;;2.72;;
78787;SDS011;68131;52.508;5.502;2023-06-22T00:07:48;5.53;;;3.20;;
78787;SDS011;68131;52.508;5.502;2023-06-22T00:10:17;6.45;;;4.15;;
78787;SDS011;68131;52.508;5.502;2023-06-22T00:12:49;6.28;;;3.60;;
78787;SDS011;68131;52.508;5.502;2023-06-22T00:15:21;5.97;;;3.33;;
78787;SDS011;68131;52.508;5.502;2023-06-22T00:17:50;5.28;;;3.85;;
78787;SDS011;68131;52.508;5.502;2023-06-22T00:20:25;7.15;;;3.47;;
78787;SDS011;68131;52.508;5.502;2023-06-22T00:22:56;8.43;;;4.13;;
78787;SDS011;68131;52.508;5.502;2023-06-22T00:25:26;5.68;;;3.70;;
78787;SDS011;68131;52.508;5.502;2023-06-22T00:27:57;7.43;;;4.68;;
78787;SDS011;68131;52.508;5.502;2023-06-22T00:30:27;5.60;;;3.50;;
78787;SDS011;68131;52.508;5.502;2023-06-22T00:32:57;10.73;;;5.07;;
78787;SDS011;68131;52.508;5.502;2023-06-22T00:35:27;8.82;;;5.43;;
78787;SDS011;68131;52.508;5.502;2023-06-22T00:37:57;7.28;;;5.45;;
78787;SDS011;68131;52.508;5.502;2023-06-22T00:40:29;6.97;;;4.85;;
78787;SDS011;68131;52.508;5.502;2023-06-22T00:43:01;8.52;;;5.63;;
78787;SDS011;68131;52.508;5.502;2023-06-22T00:45:30;6.93;;;4.60;;
78787;SDS011;68131;52.508;5.502;2023-06-22T00:48:00;13.05;;;5.50;;
78787;SDS011;68131;52.508;5.502;2023-06-22T00:50:31;8.07;;;4.50;;
78787;SDS011;68131;52.508;5.502;2023-06-22T00:53:03;7.63;;;4.97;;
78787;SDS011;68131;52.508;5.502;2023-06-22T00:55:35;7.13;;;4.47;;
78787;SDS011;68131;52.508;5.502;2023-06-22T00:58:11;9.00;;;4.97;;
78787;SDS011;68131;52.508;5.502;2023-06-22T01:00:41;7.07;;;4.40;;
78787;SDS011;68131;52.508;5.502;2023-06-22T01:03:10;7.65;;;5.10;;
78787;SDS011;68131;52.508;5.502;2023-06-22T01:05:39;5.90;;;3.90;;
78787;SDS011;68131;52.508;5.502;2023-06-22T01:08:15;8.63;;;5.50;;
78787;SDS011;68131;52.508;5.502;2023-06-22T01:10:53;5.95;;;4.10;;
78787;SDS011;68131;52.508;5.502;2023-06-22T01:13:31;7.22;;;4.88;;
78787;SDS011;68131;52.508;5.502;2023-06-22T01:16:07;8.68;;;5.43;;
78787;SDS011;68131;52.508;5.502;2023-06-22T01:18:40;7.20;;;5.07;;
78787;SDS011;68131;52.508;5.502;2023-06-22T01:21:17;7.32;;;5.85;;
78787;SDS011;68131;52.508;5.502;2023-06-22T01:23:51;10.00;;;5.93;;
78787;SDS011;68131;52.508;5.502;2023-06-22T01:26:29;9.38;;;5.70;;
78787;SDS011;68131;52.508;5.502;2023-06-22T01:29:08;11.07;;;5.40;;
78787;SDS011;68131;52.508;5.502;2023-06-22T01:31:40;10.05;;;6.40;;
78787;SDS011;68131;52.508;5.502;2023-06-22T01:34:13;9.40;;;6.30;;
78787;SDS011;68131;52.508;5.502;2023-06-22T01:36:43;10.10;;;6.35;;
78787;SDS011;68131;52.508;5.502;2023-06-22T01:39:16;13.20;;;6.13;;
78787;SDS011;68131;52.508;5.502;2023-06-22T01:41:47;10.05;;;6.82;;
78787;SDS011;68131;52.508;5.502;2023-06-22T01:44:19;12.63;;;6.43;;
78787;SDS011;68131;52.508;5.502;2023-06-22T01:46:52;10.82;;;6.88;;
78787;SDS011;68131;52.508;5.502;2023-06-22T01:49:21;10.43;;;6.85;;
78787;SDS011;68131;52.508;5.502;2023-06-22T01:51:51;9.55;;;6.28;;
78787;SDS011;68131;52.508;5.502;2023-06-22T01:54:20;11.88;;;6.00;;
78787;SDS011;68131;52.508;5.502;2023-06-22T01:56:51;12.68;;;7.00;;
78787;SDS011;68131;52.508;5.502;2023-06-22T01:59:24;9.82;;;6.18;;
78787;SDS011;68131;52.508;5.502;2023-06-22T02:01:58;9.75;;;6.47;;
78787;SDS011;68131;52.508;5.502;2023-06-22T02:04:34;8.73;;;5.65;;
78787;SDS011;68131;52.508;5.502;2023-06-22T02:07:07;9.48;;;5.57;;
78787;SDS011;68131;52.508;5.502;2023-06-22T02:09:38;8.55;;;5.20;;
78787;SDS011;68131;52.508;5.502;2023-06-22T02:12:09;10.23;;;5.32;;
78787;SDS011;68131;52.508;5.502;2023-06-22T02:14:43;8.77;;;6.90;;
78787;SDS011;68131;52.508;5.502;2023-06-22T02:17:14;9.20;;;6.15;;
78787;SDS011;68131;52.508;5.502;2023-06-22T02:19:45;9.73;;;6.43;;
78787;SDS011;68131;52.508;5.502;2023-06-22T02:22:14;11.57;;;6.22;;
78787;SDS011;68131;52.508;5.502;2023-06-22T02:24:43;9.30;;;6.35;;
78787;SDS011;68131;52.508;5.502;2023-06-22T02:27:13;10.52;;;6.05;;
78787;SDS011;68131;52.508;5.502;2023-06-22T02:29:50;10.88;;;6.13;;
78787;SDS011;68131;52.508;5.502;2023-06-22T02:32:20;12.27;;;7.60;;
78787;SDS011;68131;52.508;5.502;2023-06-22T02:34:52;8.23;;;5.35;;
78787;SDS011;68131;52.508;5.502;2023-06-22T02:37:24;11.45;;;7.18;;
78787;SDS011;68131;52.508;5.502;2023-06-22T02:39:55;8.75;;;6.57;;
78787;SDS011;68131;52.508;5.502;2023-06-22T02:42:25;10.48;;;5.88;;
78787;SDS011;68131;52.508;5.502;2023-06-22T02:44:56;12.63;;;6.75;;
78787;SDS011;68131;52.508;5.502;2023-06-22T02:47:26;9.88;;;7.35;;
78787;SDS011;68131;52.508;5.502;2023-06-22T02:49:55;9.98;;;6.38;;
78787;SDS011;68131;52.508;5.502;2023-06-22T02:52:30;9.50;;;6.70;;
78787;SDS011;68131;52.508;5.502;2023-06-22T02:54:59;11.35;;;7.60;;
78787;SDS011;68131;52.508;5.502;2023-06-22T02:57:29;9.85;;;6.60;;
78787;SDS011;68131;52.508;5.502;2023-06-22T03:00:04;11.13;;;7.57;;
78787;SDS011;68131;52.508;5.502;2023-06-22T03:02:42;11.85;;;7.97;;
78787;SDS011;68131;52.508;5.502;2023-06-22T03:05:12;11.82;;;7.70;;
78787;SDS011;68131;52.508;5.502;2023-06-22T03:07:43;9.98;;;7.07;;
78787;SDS011;68131;52.508;5.502;2023-06-22T03:10:13;8.60;;;6.20;;
78787;SDS011;68131;52.508;5.502;2023-06-22T03:12:49;9.25;;;6.78;;
78787;SDS011;68131;52.508;5.502;2023-06-22T03:15:22;10.18;;;6.97;;
78787;SDS011;68131;52.508;5.502;2023-06-22T03:17:51;11.30;;;6.43;;
78787;SDS011;68131;52.508;5.502;2023-06-22T03:20:22;11.70;;;6.75;;
78787;SDS011;68131;52.508;5.502;2023-06-22T03:22:59;8.80;;;6.70;;
78787;SDS011;68131;52.508;5.502;2023-06-22T03:25:29;9.40;;;6.47;;
78787;SDS011;68131;52.508;5.502;2023-06-22T03:28:02;10.15;;;7.80;;
78787;SDS011;68131;52.508;5.502;2023-06-22T03:30:34;12.77;;;7.88;;
78787;SDS011;68131;52.508;5.502;2023-06-22T03:33:03;12.15;;;7.97;;
78787;SDS011;68131;52.508;5.502;2023-06-22T03:35:33;11.50;;;7.53;;
78787;SDS011;68131;52.508;5.502;2023-06-22T03:38:02;12.45;;;7.10;;
78787;SDS011;68131;52.508;5.502;2023-06-22T03:40:32;12.50;;;7.55;;
78787;SDS011;68131;52.508;5.502;2023-06-22T03:43:01;11.45;;;8.35;;
78787;SDS011;68131;52.508;5.502;2023-06-22T03:45:30;11.63;;;7.70;;
78787;SDS011;68131;52.508;5.502;2023-06-22T03:48:03;8.55;;;6.90;;
78787;SDS011;68131;52.508;5.502;2023-06-22T03:50:32;10.02;;;6.68;;
78787;SDS011;68131;52.508;5.502;2023-06-22T03:53:03;13.65;;;7.55;;
78787;SDS011;68131;52.508;5.502;2023-06-22T03:55:40;12.02;;;8.45;;
78787;SDS011;68131;52.508;5.502;2023-06-22T03:58:16;11.70;;;8.60;;
78787;SDS011;68131;52.508;5.502;2023-06-22T04:00:49;13.15;;;8.07;;
78787;SDS011;68131;52.508;5.502;2023-06-22T04:03:19;13.70;;;8.88;;
78787;SDS011;68131;52.508;5.502;2023-06-22T04:05:48;12.43;;;9.07;;
78787;SDS011;68131;52.508;5.502;2023-06-22T04:08:20;13.25;;;8.10;;
78787;SDS011;68131;52.508;5.502;2023-06-22T04:10:52;14.18;;;8.07;;
78787;SDS011;68131;52.508;5.502;2023-06-22T04:13:21;14.95;;;9.80;;
78787;SDS011;68131;52.508;5.502;2023-06-22T04:15:53;14.07;;;8.48;;
78787;SDS011;68131;52.508;5.502;2023-06-22T04:20:53;13.43;;;8.38;;
78787;SDS011;68131;52.508;5.502;2023-06-22T04:23:22;15.73;;;9.35;;
78787;SDS011;68131;52.508;5.502;2023-06-22T04:25:51;14.27;;;8.68;;
78787;SDS011;68131;52.508;5.502;2023-06-22T04:28:23;12.23;;;8.38;;
78787;SDS011;68131;52.508;5.502;2023-06-22T04:30:55;11.88;;;8.55;;
78787;SDS011;68131;52.508;5.502;2023-06-22T04:33:28;14.60;;;9.55;;
78787;SDS011;68131;52.508;5.502;2023-06-22T04:35:57;16.15;;;9.73;;
78787;SDS011;68131;52.508;5.502;2023-06-22T04:38:27;15.48;;;9.60;;
78787;SDS011;68131;52.508;5.502;2023-06-22T04:40:58;15.13;;;10.60;;
78787;SDS011;68131;52.508;5.502;2023-06-22T04:43:29;13.93;;;9.68;;
78787;SDS011;68131;52.508;5.502;2023-06-22T04:46:00;13.90;;;9.02;;
78787;SDS011;68131;52.508;5.502;2023-06-22T04:48:30;15.52;;;10.38;;
78787;SDS011;68131;52.508;5.502;2023-06-22T04:51:01;15.80;;;10.30;;
78787;SDS011;68131;52.508;5.502;2023-06-22T04:53:31;12.95;;;9.18;;
78787;SDS011;68131;52.508;5.502;2023-06-22T04:56:00;10.63;;;8.35;;
78787;SDS011;68131;52.508;5.502;2023-06-22T04:58:30;16.02;;;9.50;;
78787;SDS011;68131;52.508;5.502;2023-06-22T05:01:02;14.40;;;10.10;;
78787;SDS011;68131;52.508;5.502;2023-06-22T05:03:31;15.57;;;9.93;;
78787;SDS011;68131;52.508;5.502;2023-06-22T05:06:02;13.35;;;10.60;;
78787;SDS011;68131;52.508;5.502;2023-06-22T05:08:31;14.07;;;9.40;;
78787;SDS011;68131;52.508;5.502;2023-06-22T05:11:00;12.32;;;9.18;;
78787;SDS011;68131;52.508;5.502;2023-06-22T05:13:30;13.68;;;9.02;;
78787;SDS011;68131;52.508;5.502;2023-06-22T05:16:05;17.25;;;10.43;;
78787;SDS011;68131;52.508;5.502;2023-06-22T05:18:34;12.50;;;10.13;;
78787;SDS011;68131;52.508;5.502;2023-06-22T05:21:04;13.55;;;9.23;;
78787;SDS011;68131;52.508;5.502;2023-06-22T05:23:35;12.65;;;8.45;;
78787;SDS011;68131;52.508;5.502;2023-06-22T05:26:07;15.98;;;10.50;;
78787;SDS011;68131;52.508;5.502;2023-06-22T05:28:37;19.20;;;11.13;;
78787;SDS011;68131;52.508;5.502;2023-06-22T05:31:08;17.98;;;11.98;;
78787;SDS011;68131;52.508;5.502;2023-06-22T05:33:37;12.65;;;9.73;;
78787;SDS011;68131;52.508;5.502;2023-06-22T05:36:07;16.55;;;10.75;;
78787;SDS011;68131;52.508;5.502;2023-06-22T05:38:36;18.95;;;11.57;;
78787;SDS011;68131;52.508;5.502;2023-06-22T05:41:09;18.52;;;11.30;;
78787;SDS011;68131;52.508;5.502;2023-06-22T05:43:39;14.18;;;9.10;;
78787;SDS011;68131;52.508;5.502;2023-06-22T05:46:11;16.25;;;10.98;;
78787;SDS011;68131;52.508;5.502;2023-06-22T05:48:40;14.25;;;9.50;;
78787;SDS011;68131;52.508;5.502;2023-06-22T05:51:09;13.98;;;9.32;;
78787;SDS011;68131;52.508;5.502;2023-06-22T05:53:39;16.83;;;10.30;;
78787;SDS011;68131;52.508;5.502;2023-06-22T05:56:08;13.60;;;9.02;;
78787;SDS011;68131;52.508;5.502;2023-06-22T05:58:37;14.00;;;9.90;;
78787;SDS011;68131;52.508;5.502;2023-06-22T06:01:08;16.02;;;10.25;;
78787;SDS011;68131;52.508;5.502;2023-06-22T06:03:41;14.48;;;8.93;;
78787;SDS011;68131;52.508;5.502;2023-06-22T06:06:15;13.63;;;9.52;;
78787;SDS011;68131;52.508;5.502;2023-06-22T06:08:46;12.57;;;8.85;;
78787;SDS011;68131;52.508;5.502;2023-06-22T06:11:16;15.07;;;9.95;;
78787;SDS011;68131;52.508;5.502;2023-06-22T06:13:45;11.52;;;8.93;;
78787;SDS011;68131;52.508;5.502;2023-06-22T06:16:17;11.70;;;8.13;;
78787;SDS011;68131;52.508;5.502;2023-06-22T06:18:46;11.98;;;7.70;;
78787;SDS011;68131;52.508;5.502;2023-06-22T06:21:16;10.75;;;7.65;;
78787;SDS011;68131;52.508;5.502;2023-06-22T06:23:45;10.80;;;7.68;;
78787;SDS011;68131;52.508;5.502;2023-06-22T06:26:15;10.52;;;6.93;;
78787;SDS011;68131;52.508;5.502;2023-06-22T06:28:53;12.40;;;7.78;;
78787;SDS011;68131;52.508;5.502;2023-06-22T06:31:25;10.43;;;7.85;;
78787;SDS011;68131;52.508;5.502;2023-06-22T06:33:56;14.23;;;8.52;;
78787;SDS011;68131;52.508;5.502;2023-06-22T06:36:25;12.85;;;8.88;;
78787;SDS011;68131;52.508;5.502;2023-06-22T06:38:54;9.23;;;6.88;;
78787;SDS011;68131;52.508;5.502;2023-06-22T06:41:24;12.75;;;8.20;;
78787;SDS011;68131;52.508;5.502;2023-06-22T06:43:53;11.73;;;8.05;;
78787;SDS011;68131;52.508;5.502;2023-06-22T06:46:26;13.10;;;7.70;;
78787;SDS011;68131;52.508;5.502;2023-06-22T06:48:56;15.65;;;8.50;;
78787;SDS011;68131;52.508;5.502;2023-06-22T06:51:29;13.02;;;7.82;;
78787;SDS011;68131;52.508;5.502;2023-06-22T06:53:58;11.50;;;7.68;;
78787;SDS011;68131;52.508;5.502;2023-06-22T06:56:28;10.10;;;7.43;;
78787;SDS011;68131;52.508;5.502;2023-06-22T06:59:00;11.15;;;7.72;;
78787;SDS011;68131;52.508;5.502;2023-06-22T07:01:34;12.65;;;7.47;;
78787;SDS011;68131;52.508;5.502;2023-06-22T07:04:04;11.57;;;8.20;;
78787;SDS011;68131;52.508;5.502;2023-06-22T07:06:33;12.80;;;7.63;;
78787;SDS011;68131;52.508;5.502;2023-06-22T07:09:05;12.23;;;8.82;;
78787;SDS011;68131;52.508;5.502;2023-06-22T07:11:34;15.68;;;8.30;;
78787;SDS011;68131;52.508;5.502;2023-06-22T07:14:05;14.20;;;7.30;;
78787;SDS011;68131;52.508;5.502;2023-06-22T07:16:37;15.35;;;8.93;;
78787;SDS011;68131;52.508;5.502;2023-06-22T07:19:07;14.35;;;7.75;;
78787;SDS011;68131;52.508;5.502;2023-06-22T07:21:36;10.88;;;7.38;;
78787;SDS011;68131;52.508;5.502;2023-06-22T07:24:06;11.25;;;6.97;;
78787;SDS011;68131;52.508;5.502;2023-06-22T07:26:35;14.50;;;8.70;;
78787;SDS011;68131;52.508;5.502;2023-06-22T07:29:04;13.13;;;7.75;;
78787;SDS011;68131;52.508;5.502;2023-06-22T07:31:36;10.43;;;7.45;;
78787;SDS011;68131;52.508;5.502;2023-06-22T07:34:06;11.50;;;5.65;;
78787;SDS011;68131;52.508;5.502;2023-06-22T07:36:35;13.80;;;7.93;;
78787;SDS011;68131;52.508;5.502;2023-06-22T07:39:05;10.68;;;7.32;;
78787;SDS011;68131;52.508;5.502;2023-06-22T07:41:34;10.00;;;7.05;;
78787;SDS011;68131;52.508;5.502;2023-06-22T07:44:03;11.45;;;7.40;;
78787;SDS011;68131;52.508;5.502;2023-06-22T07:46:41;13.15;;;8.15;;
78787;SDS011;68131;52.508;5.502;2023-06-22T07:49:12;12.57;;;8.35;;
78787;SDS011;68131;52.508;5.502;2023-06-22T07:51:42;10.30;;;7.43;;
78787;SDS011;68131;52.508;5.502;2023-06-22T07:54:14;10.30;;;6.95;;
78787;SDS011;68131;52.508;5.502;2023-06-22T07:56:44;11.13;;;7.80;;
78787;SDS011;68131;52.508;5.502;2023-06-22T07:59:14;12.80;;;7.35;;
78787;SDS011;68131;52.508;5.502;2023-06-22T08:01:46;12.30;;;7.15;;
78787;SDS011;68131;52.508;5.502;2023-06-22T08:04:16;9.52;;;7.13;;
78787;SDS011;68131;52.508;5.502;2023-06-22T08:06:45;9.57;;;6.13;;
78787;SDS011;68131;52.508;5.502;2023-06-22T08:09:14;7.78;;;6.28;;
78787;SDS011;68131;52.508;5.502;2023-06-22T08:11:43;11.00;;;7.10;;
78787;SDS011;68131;52.508;5.502;2023-06-22T08:14:13;11.95;;;7.80;;
78787;SDS011;68131;52.508;5.502;2023-06-22T08:16:42;11.75;;;7.68;;
78787;SDS011;68131;52.508;5.502;2023-06-22T08:19:16;11.65;;;7.07;;
78787;SDS011;68131;52.508;5.502;2023-06-22T08:21:45;14.18;;;7.40;;
78787;SDS011;68131;52.508;5.502;2023-06-22T08:24:15;8.32;;;5.93;;
78787;SDS011;68131;52.508;5.502;2023-06-22T08:26:44;8.35;;;6.13;;
78787;SDS011;68131;52.508;5.502;2023-06-22T08:29:13;9.95;;;7.45;;
78787;SDS011;68131;52.508;5.502;2023-06-22T08:31:42;9.60;;;6.45;;
78787;SDS011;68131;52.508;5.502;2023-06-22T08:34:12;7.50;;;6.10;;
78787;SDS011;68131;52.508;5.502;2023-06-22T08:36:43;9.52;;;5.97;;
78787;SDS011;68131;52.508;5.502;2023-06-22T08:39:18;11.15;;;6.63;;
78787;SDS011;68131;52.508;5.502;2023-06-22T08:41:47;9.13;;;6.22;;
78787;SDS011;68131;52.508;5.502;2023-06-22T08:44:18;6.82;;;5.43;;
78787;SDS011;68131;52.508;5.502;2023-06-22T08:46:47;10.00;;;6.45;;
78787;SDS011;68131;52.508;5.502;2023-06-22T08:49:17;8.40;;;5.80;;
78787;SDS011;68131;52.508;5.502;2023-06-22T08:51:48;5.93;;;4.18;;
78787;SDS011;68131;52.508;5.502;2023-06-22T08:54:19;7.88;;;6.13;;
78787;SDS011;68131;52.508;5.502;2023-06-22T08:56:48;16.55;;;6.63;;
78787;SDS011;68131;52.508;5.502;2023-06-22T08:59:18;8.20;;;5.68;;
78787;SDS011;68131;52.508;5.502;2023-06-22T09:01:47;7.68;;;5.55;;
78787;SDS011;68131;52.508;5.502;2023-06-22T09:04:16;9.02;;;6.25;;
78787;SDS011;68131;52.508;5.502;2023-06-22T09:06:50;7.55;;;5.28;;
78787;SDS011;68131;52.508;5.502;2023-06-22T09:09:20;7.15;;;5.72;;
78787;SDS011;68131;52.508;5.502;2023-06-22T09:11:50;9.48;;;5.68;;
78787;SDS011;68131;52.508;5.502;2023-06-22T09:14:19;7.75;;;5.82;;
78787;SDS011;68131;52.508;5.502;2023-06-22T09:16:50;7.65;;;6.03;;
78787;SDS011;68131;52.508;5.502;2023-06-22T09:19:19;5.32;;;4.30;;
78787;SDS011;68131;52.508;5.502;2023-06-22T09:21:50;7.95;;;5.45;;
78787;SDS011;68131;52.508;5.502;2023-06-22T09:24:22;9.68;;;5.68;;
78787;SDS011;68131;52.508;5.502;2023-06-22T09:26:51;6.63;;;5.25;;
78787;SDS011;68131;52.508;5.502;2023-06-22T09:29:21;6.30;;;4.15;;
78787;SDS011;68131;52.508;5.502;2023-06-22T09:31:50;6.50;;;5.15;;
78787;SDS011;68131;52.508;5.502;2023-06-22T09:34:21;7.43;;;5.38;;
78787;SDS011;68131;52.508;5.502;2023-06-22T09:36:53;9.85;;;5.80;;
78787;SDS011;68131;52.508;5.502;2023-06-22T09:39:23;6.50;;;4.22;;
78787;SDS011;68131;52.508;5.502;2023-06-22T09:41:54;7.65;;;4.50;;
78787;SDS011;68131;52.508;5.502;2023-06-22T09:44:23;6.57;;;3.78;;
78787;SDS011;68131;52.508;5.502;2023-06-22T09:46:52;6.93;;;4.90;;
78787;SDS011;68131;52.508;5.502;2023-06-22T09:49:21;8.30;;;5.03;;
78787;SDS011;68131;52.508;5.502;2023-06-22T09:51:53;5.88;;;4.30;;
78787;SDS011;68131;52.508;5.502;2023-06-22T09:54:22;5.28;;;4.38;;
78787;SDS011;68131;52.508;5.502;2023-06-22T09:56:52;7.40;;;4.90;;
78787;SDS011;68131;52.508;5.502;2023-06-22T09:59:24;4.47;;;3.85;;
78787;SDS011;68131;52.508;5.502;2023-06-22T10:01:53;5.65;;;3.95;;
78787;SDS011;68131;52.508;5.502;2023-06-22T10:04:24;7.35;;;3.25;;
78787;SDS011;68131;52.508;5.502;2023-06-22T10:06:56;6.75;;;4.32;;
78787;SDS011;68131;52.508;5.502;2023-06-22T10:09:26;6.60;;;4.55;;
78787;SDS011;68131;52.508;5.502;2023-06-22T10:11:55;5.38;;;4.20;;
78787;SDS011;68131;52.508;5.502;2023-06-22T10:14:24;5.35;;;3.92;;
78787;SDS011;68131;52.508;5.502;2023-06-22T10:16:55;4.97;;;4.00;;
78787;SDS011;68131;52.508;5.502;2023-06-22T10:19:27;5.80;;;2.65;;
78787;SDS011;68131;52.508;5.502;2023-06-22T10:21:59;4.18;;;3.22;;
78787;SDS011;68131;52.508;5.502;2023-06-22T10:24:28;6.70;;;3.28;;
78787;SDS011;68131;52.508;5.502;2023-06-22T10:26:57;4.95;;;3.00;;
78787;SDS011;68131;52.508;5.502;2023-06-22T10:29:26;4.53;;;3.17;;
78787;SDS011;68131;52.508;5.502;2023-06-22T10:31:55;5.15;;;3.10;;
78787;SDS011;68131;52.508;5.502;2023-06-22T10:34:25;4.63;;;3.33;;
78787;SDS011;68131;52.508;5.502;2023-06-22T10:36:54;5.72;;;4.28;;
78787;SDS011;68131;52.508;5.502;2023-06-22T10:39:26;4.60;;;3.28;;
78787;SDS011;68131;52.508;5.502;2023-06-22T10:41:55;2.85;;;2.03;;
78787;SDS011;68131;52.508;5.502;2023-06-22T10:44:27;2.63;;;2.15;;
78787;SDS011;68131;52.508;5.502;2023-06-22T10:46:56;5.05;;;3.60;;
78787;SDS011;68131;52.508;5.502;2023-06-22T10:49:25;3.60;;;2.53;;
78787;SDS011;68131;52.508;5.502;2023-06-22T10:51:54;3.28;;;2.47;;
78787;SDS011;68131;52.508;5.502;2023-06-22T10:54:28;5.80;;;3.03;;
78787;SDS011;68131;52.508;5.502;2023-06-22T10:57:01;3.90;;;2.30;;
78787;SDS011;68131;52.508;5.502;2023-06-22T10:59:30;3.72;;;2.78;;
78787;SDS011;68131;52.508;5.502;2023-06-22T11:01:59;7.97;;;3.35;;
78787;SDS011;68131;52.508;5.502;2023-06-22T11:04:30;3.53;;;2.78;;
78787;SDS011;68131;52.508;5.502;2023-06-22T11:06:59;4.95;;;2.92;;
78787;SDS011;68131;52.508;5.502;2023-06-22T11:09:31;3.05;;;2.42;;
78787;SDS011;68131;52.508;5.502;2023-06-22T11:12:05;4.03;;;2.65;;
78787;SDS011;68131;52.508;5.502;2023-06-22T11:14:35;5.28;;;2.72;;
78787;SDS011;68131;52.508;5.502;2023-06-22T11:17:04;3.65;;;2.60;;
78787;SDS011;68131;52.508;5.502;2023-06-22T11:19:34;3.35;;;2.42;;
78787;SDS011;68131;52.508;5.502;2023-06-22T11:22:07;2.97;;;2.40;;
78787;SDS011;68131;52.508;5.502;2023-06-22T11:24:41;3.25;;;2.30;;
78787;SDS011;68131;52.508;5.502;2023-06-22T11:27:10;3.83;;;2.78;;
78787;SDS011;68131;52.508;5.502;2023-06-22T11:29:41;5.15;;;3.08;;
78787;SDS011;68131;52.508;5.502;2023-06-22T11:32:10;5.15;;;2.45;;
78787;SDS011;68131;52.508;5.502;2023-06-22T11:34:39;4.00;;;2.80;;
78787;SDS011;68131;52.508;5.502;2023-06-22T11:37:09;3.80;;;2.97;;
78787;SDS011;68131;52.508;5.502;2023-06-22T11:39:41;3.83;;;2.72;;
78787;SDS011;68131;52.508;5.502;2023-06-22T11:42:11;4.30;;;3.17;;
78787;SDS011;68131;52.508;5.502;2023-06-22T11:44:41;5.45;;;2.53;;
78787;SDS011;68131;52.508;5.502;2023-06-22T11:47:10;4.22;;;3.03;;
78787;SDS011;68131;52.508;5.502;2023-06-22T11:49:39;3.28;;;2.50;;
78787;SDS011;68131;52.508;5.502;2023-06-22T11:52:09;2.75;;;2.28;;
78787;SDS011;68131;52.508;5.502;2023-06-22T11:54:41;3.78;;;2.45;;
78787;SDS011;68131;52.508;5.502;2023-06-22T11:57:11;4.63;;;2.60;;
78787;SDS011;68131;52.508;5.502;2023-06-22T11:59:40;6.50;;;2.28;;
78787;SDS011;68131;52.508;5.502;2023-06-22T12:02:09;4.38;;;2.42;;
78787;SDS011;68131;52.508;5.502;2023-06-22T12:04:38;6.30;;;3.60;;
78787;SDS011;68131;52.508;5.502;2023-06-22T12:07:07;4.35;;;2.95;;
78787;SDS011;68131;52.508;5.502;2023-06-22T12:09:37;6.95;;;3.03;;
78787;SDS011;68131;52.508;5.502;2023-06-22T12:12:08;4.20;;;2.92;;
78787;SDS011;68131;52.508;5.502;2023-06-22T12:14:38;4.00;;;2.72;;
78787;SDS011;68131;52.508;5.502;2023-06-22T12:17:07;3.65;;;2.80;;
78787;SDS011;68131;52.508;5.502;2023-06-22T12:19:36;6.65;;;3.30;;
78787;SDS011;68131;52.508;5.502;2023-06-22T12:22:06;3.10;;;2.42;;
78787;SDS011;68131;52.508;5.502;2023-06-22T12:24:35;3.10;;;2.58;;
78787;SDS011;68131;52.508;5.502;2023-06-22T12:27:04;3.78;;;2.88;;
78787;SDS011;68131;52.508;5.502;2023-06-22T12:29:36;4.05;;;2.17;;
78787;SDS011;68131;52.508;5.502;2023-06-22T12:32:06;4.32;;;2.58;;
78787;SDS011;68131;52.508;5.502;2023-06-22T12:34:38;7.47;;;3.50;;
78787;SDS011;68131;52.508;5.502;2023-06-22T12:37:07;5.30;;;3.42;;
78787;SDS011;68131;52.508;5.502;2023-06-22T12:39:36;4.70;;;3.50;;
78787;SDS011;68131;52.508;5.502;2023-06-22T12:42:06;4.28;;;3.33;;
78787;SDS011;68131;52.508;5.502;2023-06-22T12:44:40;3.45;;;2.47;;
78787;SDS011;68131;52.508;5.502;2023-06-22T12:47:09;5.35;;;3.38;;
78787;SDS011;68131;52.508;5.502;2023-06-22T12:49:39;4.25;;;3.15;;
78787;SDS011;68131;52.508;5.502;2023-06-22T12:52:14;4.13;;;3.13;;
78787;SDS011;68131;52.508;5.502;2023-06-22T12:54:43;3.45;;;2.60;;
78787;SDS011;68131;52.508;5.502;2023-06-22T12:57:15;4.60;;;3.47;;
78787;SDS011;68131;52.508;5.502;2023-06-22T12:59:47;6.43;;;3.15;;
78787;SDS011;68131;52.508;5.502;2023-06-22T13:02:17;4.03;;;3.33;;
78787;SDS011;68131;52.508;5.502;2023-06-22T13:04:51;6.70;;;3.85;;
78787;SDS011;68131;52.508;5.502;2023-06-22T13:07:21;4.20;;;3.42;;
78787;SDS011;68131;52.508;5.502;2023-06-22T13:09:50;4.30;;;3.60;;
78787;SDS011;68131;52.508;5.502;2023-06-22T13:12:21;5.05;;;3.42;;
78787;SDS011;68131;52.508;5.502;2023-06-22T13:14:53;4.13;;;2.97;;
78787;SDS011;68131;52.508;5.502;2023-06-22T13:17:22;3.47;;;2.58;;
78787;SDS011;68131;52.508;5.502;2023-06-22T13:19:51;5.45;;;3.47;;
78787;SDS011;68131;52.508;5.502;2023-06-22T13:22:28;8.90;;;3.53;;
78787;SDS011;68131;52.508;5.502;2023-06-22T13:24:58;3.33;;;2.92;;
78787;SDS011;68131;52.508;5.502;2023-06-22T13:27:28;2.90;;;2.50;;
78787;SDS011;68131;52.508;5.502;2023-06-22T13:30:00;4.95;;;3.10;;
78787;SDS011;68131;52.508;5.502;2023-06-22T13:32:32;4.03;;;3.25;;
78787;SDS011;68131;52.508;5.502;2023-06-22T13:35:01;4.78;;;3.50;;
78787;SDS011;68131;52.508;5.502;2023-06-22T13:37:31;6.22;;;3.67;;
78787;SDS011;68131;52.508;5.502;2023-06-22T13:40:00;4.25;;;3.55;;
78787;SDS011;68131;52.508;5.502;2023-06-22T13:42:31;7.30;;;3.67;;
78787;SDS011;68131;52.508;5.502;2023-06-22T13:45:03;5.60;;;3.65;;
78787;SDS011;68131;52.508;5.502;2023-06-22T13:47:33;7.80;;;3.45;;
78787;SDS011;68131;52.508;5.502;2023-06-22T13:50:03;4.72;;;3.60;;
78787;SDS011;68131;52.508;5.502;2023-06-22T13:52:34;6.15;;;3.78;;
78787;SDS011;68131;52.508;5.502;2023-06-22T13:55:03;5.05;;;4.07;;
78787;SDS011;68131;52.508;5.502;2023-06-22T13:57:33;4.38;;;3.53;;
78787;SDS011;68131;52.508;5.502;2023-06-22T14:00:06;5.93;;;2.97;;
78787;SDS011;68131;52.508;5.502;2023-06-22T14:02:38;4.32;;;3.30;;
78787;SDS011;68131;52.508;5.502;2023-06-22T14:05:08;4.80;;;3.80;;
78787;SDS011;68131;52.508;5.502;2023-06-22T14:07:37;7.13;;;3.58;;
78787;SDS011;68131;52.508;5.502;2023-06-22T14:10:07;7.93;;;4.32;;
78787;SDS011;68131;52.508;5.502;2023-06-22T14:12:36;4.43;;;3.40;;
78787;SDS011;68131;52.508;5.502;2023-06-22T14:15:08;3.75;;;3.10;;
78787;SDS011;68131;52.508;5.502;2023-06-22T14:17:38;5.30;;;3.22;;
78787;SDS011;68131;52.508;5.502;2023-06-22T14:20:07;4.43;;;3.90;;
78787;SDS011;68131;52.508;5.502;2023-06-22T14:22:37;3.92;;;2.92;;
78787;SDS011;68131;52.508;5.502;2023-06-22T14:25:06;5.80;;;3.90;;
78787;SDS011;68131;52.508;5.502;2023-06-22T14:27:38;5.28;;;3.80;;
78787;SDS011;68131;52.508;5.502;2023-06-22T14:30:10;6.43;;;4.03;;
78787;SDS011;68131;52.508;5.502;2023-06-22T14:32:39;5.38;;;3.70;;
78787;SDS011;68131;52.508;5.502;2023-06-22T14:35:11;6.40;;;4.50;;
78787;SDS011;68131;52.508;5.502;2023-06-22T14:37:40;6.15;;;4.78;;
78787;SDS011;68131;52.508;5.502;2023-06-22T14:40:10;5.20;;;3.85;;
78787;SDS011;68131;52.508;5.502;2023-06-22T14:42:40;7.07;;;4.75;;
78787;SDS011;68131;52.508;5.502;2023-06-22T14:45:12;4.65;;;4.15;;
78787;SDS011;68131;52.508;5.502;2023-06-22T14:50:12;5.38;;;4.70;;
78787;SDS011;68131;52.508;5.502;2023-06-22T14:52:41;7.65;;;5.78;;
78787;SDS011;68131;52.508;5.502;2023-06-22T14:55:13;6.32;;;4.95;;
78787;SDS011;68131;52.508;5.502;2023-06-22T14:57:42;8.63;;;4.93;;
78787;SDS011;68131;52.508;5.502;2023-06-22T15:00:16;6.13;;;5.47;;
78787;SDS011;68131;52.508;5.502;2023-06-22T15:02:47;8.05;;;4.72;;
78787;SDS011;68131;52.508;5.502;2023-06-22T15:05:17;6.00;;;4.85;;